Time;durP1;ratioP1;P1;durP2;ratioP2;P2;SDS_P1;SDS_P2;PMS_P1;PMS_P2;Temp;Humidity;BMP_temperature;BMP_pressure;BME280_temperature;BME280_humidity;BME280_pressure;Samples;Min_cycle;Max_cycle;Signal;HPM_P1;HPM_P2
2021/03/20 00:02:26;;;;;;;3.20;1.70;;;;;;;-0.19;62.52;102345.13;6323562;28;20243;-73
2021/03/20 00:05:30;;;;;;;2.30;1.57;;;;;;;-0.18;62.49;102338.75;6310580;28;20234;-73
2021/03/20 00:08:35;;;;;;;4.33;1.50;;;;;;;-0.08;62.50;102336.28;6311725;28;20206;-73
2021/03/20 00:11:42;;;;;;;3.10;1.60;;;;;;;-0.08;62.35;102330.91;6310945;28;20186;-72
2021/03/20 00:14:45;;;;;;;1.40;1.23;;;;;;;0.07;61.95;102328.94;6312061;28;20188;-73
2021/03/20 00:17:49;;;;;;;2.23;1.70;;;;;;;0.11;61.64;102325.03;6311680;28;20260;-73
2021/03/20 00:20:55;;;;;;;3.17;1.50;;;;;;;0.02;62.04;102325.72;6293829;28;20202;-73
2021/03/20 00:23:58;;;;;;;2.60;1.60;;;;;;;-0.01;61.70;102295.47;6311718;28;20251;-72
2021/03/20 00:27:02;;;;;;;1.67;1.60;;;;;;;0.24;60.50;102302.53;6311642;28;20307;-73
2021/03/20 00:30:10;;;;;;;2.37;1.80;;;;;;;0.25;60.75;102292.66;6311844;28;20192;-73
2021/03/20 00:33:21;;;;;;;1.57;1.57;;;;;;;-0.25;60.72;102246.31;6311716;28;20268;-73
2021/03/20 00:36:27;;;;;;;1.57;1.43;;;;;;;0.16;60.50;102290.66;6312035;28;20188;-73
2021/03/20 00:39:41;;;;;;;1.90;1.40;;;;;;;0.19;59.99;102285.06;6310418;28;20253;-73
2021/03/20 00:42:45;;;;;;;1.70;1.60;;;;;;;0.23;59.54;102270.47;6311025;28;20212;-73
2021/03/20 00:45:50;;;;;;;1.30;1.30;;;;;;;0.23;59.46;102275.81;6311753;28;20191;-72
2021/03/20 00:48:53;;;;;;;2.30;1.73;;;;;;;0.29;59.13;102259.22;6311383;28;20207;-72
2021/03/20 00:51:57;;;;;;;8.30;1.57;;;;;;;0.08;58.85;102250.97;6311376;28;20194;-73
2021/03/20 00:55:00;;;;;;;2.57;1.50;;;;;;;0.13;58.71;102247.97;6310533;28;20452;-72
2021/03/20 00:58:22;;;;;;;1.57;1.47;;;;;;;0.33;58.48;102244.63;6311132;28;20191;-73
2021/03/20 01:01:27;;;;;;;1.30;1.27;;;;;;;0.30;57.95;102239.47;6312335;28;20185;-73
2021/03/20 01:04:31;;;;;;;3.03;1.50;;;;;;;0.24;57.56;102234.56;6315456;28;20250;-73
2021/03/20 01:07:35;;;;;;;1.80;1.70;;;;;;;0.31;57.53;102225.09;6315317;28;20184;-73
2021/03/20 01:10:39;;;;;;;3.07;1.40;;;;;;;0.40;56.71;102219.00;6327131;28;20188;-73
2021/03/20 01:13:44;;;;;;;2.13;1.67;;;;;;;0.46;56.44;102205.13;6315030;28;20190;-72
2021/03/20 01:16:47;;;;;;;1.53;1.50;;;;;;;0.33;56.24;102212.41;6314705;28;20189;-72
2021/03/20 01:19:50;;;;;;;5.13;1.63;;;;;;;0.42;55.26;102222.44;6315594;28;20185;-72
2021/03/20 01:22:53;;;;;;;1.90;1.50;;;;;;;0.48;55.35;102238.06;6314630;28;20522;-72
2021/03/20 01:25:57;;;;;;;1.70;1.60;;;;;;;0.46;54.69;102224.75;6315778;28;20186;-72
2021/03/20 01:29:01;;;;;;;1.40;1.40;;;;;;;0.47;54.31;102204.13;6314305;28;20186;-72
2021/03/20 01:32:04;;;;;;;3.60;1.30;;;;;;;0.49;52.91;102183.38;6315515;28;20185;-73
2021/03/20 01:35:09;;;;;;;1.33;1.23;;;;;;;0.27;52.80;102175.28;6315113;28;20225;-73
2021/03/20 01:38:15;;;;;;;1.40;1.40;;;;;;;0.52;52.50;102175.94;6314146;28;20506;-72
2021/03/20 01:41:23;;;;;;;1.30;1.30;;;;;;;0.43;52.16;102173.13;6315372;28;20185;-73
2021/03/20 01:44:28;;;;;;;2.30;1.50;;;;;;;0.40;52.37;102160.78;6315015;28;20289;-73
2021/03/20 01:47:32;;;;;;;1.63;1.20;;;;;;;0.27;51.87;102153.81;6315063;28;20223;-73
2021/03/20 01:50:39;;;;;;;1.20;1.20;;;;;;;0.29;52.72;102151.84;6314827;28;20184;-72
2021/03/20 01:53:44;;;;;;;3.47;1.40;;;;;;;0.44;51.41;102115.75;6315043;28;20201;-73
2021/03/20 01:56:50;;;;;;;1.10;1.10;;;;;;;0.40;51.17;102149.19;6297523;28;20248;-72
2021/03/20 01:59:56;;;;;;;2.03;1.20;;;;;;;0.53;50.81;102145.44;6296516;28;20202;-73
2021/03/20 02:03:02;;;;;;;1.37;1.37;;;;;;;0.51;50.42;102135.78;6326983;23;20256;-77
2021/03/20 02:06:08;;;;;;;3.97;1.57;;;;;;;0.64;49.93;102128.47;6316051;28;20192;-77
2021/03/20 02:09:13;;;;;;;1.10;1.10;;;;;;;0.69;49.81;102123.59;6315054;28;20246;-77
2021/03/20 02:12:21;;;;;;;3.40;1.30;;;;;;;0.63;49.77;102124.06;6314991;28;20187;-78
2021/03/20 02:15:30;;;;;;;2.67;1.53;;;;;;;0.52;50.59;102111.50;6316257;28;20303;-77
2021/03/20 02:18:44;;;;;;;1.50;1.33;;;;;;;0.58;50.30;102102.09;6316310;28;20186;-77
2021/03/20 02:21:52;;;;;;;1.73;1.43;;;;;;;0.60;49.75;102092.06;6315038;28;20209;-77
2021/03/20 02:25:33;;;;;;;1.30;1.30;;;;;;;0.67;49.50;102087.91;6313505;28;20388;-77
2021/03/20 02:29:09;;;;;;;6.77;1.70;;;;;;;0.67;48.81;102069.13;6314425;28;20248;-77
2021/03/20 02:32:35;;;;;;;4.77;1.30;;;;;;;0.48;49.06;102047.41;6274763;28;20473;-77
2021/03/20 02:35:48;;;;;;;2.17;1.20;;;;;;;0.73;49.14;102084.75;6313235;28;20460;-77
2021/03/20 02:38:57;;;;;;;3.87;1.60;;;;;;;0.55;49.96;102089.78;6314155;28;20191;-76
2021/03/20 02:42:07;;;;;;;1.30;1.30;;;;;;;0.61;49.10;102077.69;6314358;28;20233;-76
2021/03/20 02:45:18;;;;;;;4.47;1.30;;;;;;;0.78;48.68;102069.13;6313176;28;20263;-77
2021/03/20 02:48:36;;;;;;;1.30;1.30;;;;;;;0.87;48.42;102057.63;6312839;28;20495;-77
2021/03/20 02:51:47;;;;;;;1.30;1.30;;;;;;;0.79;49.02;102043.97;6314068;28;20191;-77
2021/03/20 02:54:59;;;;;;;2.13;1.47;;;;;;;0.76;48.59;102049.59;6314640;28;20189;-77
2021/03/20 02:58:05;;;;;;;1.70;1.30;;;;;;;0.82;49.34;102030.28;6312920;28;20415;-76
2021/03/20 03:01:17;;;;;;;1.60;1.20;;;;;;;0.85;48.79;102019.28;6313565;28;20244;-77
2021/03/20 03:04:26;;;;;;;1.33;1.33;;;;;;;0.42;49.02;101980.78;6313738;28;20210;-77
2021/03/20 03:07:36;;;;;;;1.83;1.40;;;;;;;0.68;49.13;102019.81;6313493;28;20193;-78
2021/03/20 03:10:45;;;;;;;3.93;1.30;;;;;;;0.71;48.70;102016.88;6312427;28;20415;-77
2021/03/20 03:13:52;;;;;;;1.73;1.27;;;;;;;0.82;48.84;102007.94;6313788;28;20190;-76
2021/03/20 03:17:00;;;;;;;1.40;1.30;;;;;;;0.61;48.86;101991.75;6313365;28;20254;-77
2021/03/20 03:20:10;;;;;;;1.27;1.27;;;;;;;0.78;48.79;101993.88;6314866;28;20187;-78
2021/03/20 03:23:17;;;;;;;1.43;1.33;;;;;;;0.63;49.29;101989.78;6313791;28;20220;-77
2021/03/20 03:26:25;;;;;;;1.60;1.50;;;;;;;0.61;48.76;101970.25;6314398;28;20186;-79
2021/03/20 03:29:31;;;;;;;1.60;1.50;;;;;;;0.68;48.71;101970.59;6314754;28;20192;-77
2021/03/20 03:32:37;;;;;;;1.17;1.17;;;;;;;0.80;48.87;101978.50;6313363;28;20260;-77
2021/03/20 03:35:46;;;;;;;3.20;1.30;;;;;;;0.89;48.72;101972.38;6313328;28;20252;-77
2021/03/20 03:38:56;;;;;;;1.60;1.20;;;;;;;0.95;48.77;101969.16;6313116;28;20186;-77
2021/03/20 03:41:59;;;;;;;3.30;1.40;;;;;;;0.85;48.53;101962.84;6313035;28;20186;-77
2021/03/20 03:45:04;;;;;;;5.23;1.30;;;;;;;0.71;49.70;101952.41;6312978;28;20217;-77
2021/03/20 03:48:12;;;;;;;1.40;1.40;;;;;;;0.70;48.89;101948.00;6313044;28;20184;-77
2021/03/20 03:51:18;;;;;;;2.57;1.20;;;;;;;0.74;49.94;101949.47;6313419;28;20192;-78
2021/03/20 03:54:21;;;;;;;3.20;1.70;;;;;;;0.75;49.24;101955.66;6311740;28;20228;-77
2021/03/20 03:57:43;;;;;;;1.30;1.30;;;;;;;0.81;49.52;101949.81;6312454;28;20184;-77
2021/03/20 04:00:51;;;;;;;2.33;1.20;;;;;;;0.88;49.75;101951.84;6312058;28;20274;-77
2021/03/20 04:04:01;;;;;;;1.30;1.30;;;;;;;0.98;49.26;101947.41;6312375;28;20272;-77
2021/03/20 04:07:26;;;;;;;1.10;1.10;;;;;;;1.03;48.88;101941.63;6293518;28;20265;-77
2021/03/20 04:10:34;;;;;;;2.50;1.60;;;;;;;0.99;49.41;101943.75;6311801;28;20472;-77
2021/03/20 04:13:45;;;;;;;3.60;1.40;;;;;;;0.73;49.83;101947.75;6312404;28;20189;-77
2021/03/20 04:16:57;;;;;;;1.17;1.17;;;;;;;0.86;49.95;101937.69;6311184;28;20508;-78
2021/03/20 04:20:09;;;;;;;2.43;1.30;;;;;;;0.85;50.35;101925.22;6312306;28;20217;-78
2021/03/20 04:23:18;;;;;;;2.73;1.40;;;;;;;0.90;50.08;101917.63;6311260;28;20549;-78
2021/03/20 04:26:29;;;;;;;1.90;1.80;;;;;;;0.91;50.40;101913.97;6312573;28;20184;-77
2021/03/20 04:29:39;;;;;;;1.03;1.03;;;;;;;0.92;49.98;101909.47;6312223;28;20186;-77
2021/03/20 04:32:48;;;;;;;1.40;1.40;;;;;;;0.87;50.81;101917.91;6311182;28;20218;-77
2021/03/20 04:35:56;;;;;;;1.37;1.37;;;;;;;0.93;50.65;101912.00;6312870;28;20375;-77
2021/03/20 04:39:02;;;;;;;1.07;1.07;;;;;;;0.90;50.91;101896.13;6316955;28;20249;-77
2021/03/20 04:42:05;;;;;;;1.20;1.20;;;;;;;0.89;51.61;101888.22;6316320;28;20186;-77
2021/03/20 04:45:24;;;;;;;1.20;1.20;;;;;;;0.81;51.93;101879.94;6315926;28;20460;-77
2021/03/20 04:48:31;;;;;;;2.13;1.60;;;;;;;0.59;52.75;101856.75;6317335;28;20208;-77
2021/03/20 04:51:40;;;;;;;1.30;1.20;;;;;;;0.76;52.93;101866.91;6319511;28;20186;-78
2021/03/20 04:54:44;;;;;;;5.97;1.40;;;;;;;0.77;53.87;101857.84;6317581;28;20229;-77
2021/03/20 04:57:54;;;;;;;2.63;1.30;;;;;;;0.80;54.34;101860.28;6316574;28;20194;-77
2021/03/20 05:01:05;;;;;;;1.60;1.50;;;;;;;0.74;56.69;101858.13;6290860;28;20230;-77
2021/03/20 05:04:18;;;;;;;2.93;1.40;;;;;;;0.65;57.62;101837.41;6291666;28;20252;-77
2021/03/20 05:07:23;;;;;;;2.03;1.40;;;;;;;0.64;58.32;101830.34;6291527;28;20187;-77
2021/03/20 05:10:34;;;;;;;1.10;1.10;;;;;;;0.54;59.09;101811.44;6290632;28;20484;-78
2021/03/20 05:13:43;;;;;;;2.90;1.27;;;;;;;0.76;59.15;101840.03;6291791;28;20191;-77
2021/03/20 05:16:48;;;;;;;1.20;1.10;;;;;;;0.82;59.02;101820.72;6290307;28;20493;-77
2021/03/20 05:19:52;;;;;;;1.10;1.10;;;;;;;0.66;60.07;101801.53;6291063;28;20210;-77
2021/03/20 05:22:55;;;;;;;1.20;1.20;;;;;;;0.82;59.76;101822.56;6291024;28;20496;-77
2021/03/20 05:25:59;;;;;;;1.20;1.20;;;;;;;0.80;60.82;101809.25;6290195;28;20532;-77
2021/03/20 05:29:16;;;;;;;1.27;1.23;;;;;;;0.91;60.38;101793.06;6274907;28;20193;-77
2021/03/20 05:32:25;;;;;;;1.50;1.40;;;;;;;1.01;60.40;101790.44;6290680;28;20218;-77
2021/03/20 05:35:29;;;;;;;1.30;1.30;;;;;;;1.04;60.00;101785.66;6293256;28;20199;-78
2021/03/20 05:38:32;;;;;;;1.47;1.20;;;;;;;0.94;60.48;101774.00;6292939;28;20193;-77
2021/03/20 05:41:49;;;;;;;5.70;1.40;;;;;;;0.91;60.42;101768.88;6292104;28;20415;-78
2021/03/20 05:45:06;;;;;;;1.47;1.37;;;;;;;1.00;60.62;101773.44;6293027;28;20239;-78
2021/03/20 05:48:24;;;;;;;1.40;1.40;;;;;;;1.02;60.27;101766.13;6291089;28;20277;-78
2021/03/20 05:51:45;;;;;;;3.20;1.30;;;;;;;0.97;60.42;101749.56;6292414;28;20190;-78
2021/03/20 05:55:01;;;;;;;4.10;1.47;;;;;;;0.97;60.45;101757.63;6291255;28;20258;-77
2021/03/20 05:58:34;;;;;;;1.30;1.20;;;;;;;0.92;60.42;101743.72;6317885;28;20195;-78
2021/03/20 06:01:52;;;;;;;3.57;1.40;;;;;;;1.00;60.39;101746.56;6316688;28;20295;-79
2021/03/20 06:05:07;;;;;;;1.20;1.20;;;;;;;1.02;60.02;101727.66;6314885;28;20213;-76
2021/03/20 06:08:28;;;;;;;3.70;1.10;;;;;;;1.09;59.26;101708.16;6316134;28;20254;-76
2021/03/20 06:11:44;;;;;;;1.20;1.20;;;;;;;0.92;59.37;101694.50;6313930;28;20187;-77
2021/03/20 06:15:02;;;;;;;1.13;1.13;;;;;;;1.26;58.99;101726.34;6313971;28;20379;-77
2021/03/20 06:18:29;;;;;;;1.67;1.60;;;;;;;1.26;59.07;101731.72;6315198;28;20187;-76
2021/03/20 06:21:44;;;;;;;1.13;1.13;;;;;;;1.19;59.11;101741.31;6315037;28;20197;-76
2021/03/20 06:25:00;;;;;;;3.40;1.47;;;;;;;1.33;58.68;101731.19;6315489;28;20252;-77
2021/03/20 06:28:06;;;;;;;1.30;1.30;;;;;;;1.37;58.52;101732.59;6314864;28;20197;-77
2021/03/20 06:31:19;;;;;;;1.20;1.20;;;;;;;1.52;58.83;101725.84;6316135;28;20206;-77
2021/03/20 06:34:28;;;;;;;1.47;1.37;;;;;;;1.41;58.56;101707.16;6314764;28;20228;-77
2021/03/20 06:37:37;;;;;;;1.40;1.30;;;;;;;1.49;58.22;101692.00;6314049;28;20313;-76
2021/03/20 06:40:56;;;;;;;1.10;1.10;;;;;;;0.83;58.23;101596.75;6314592;28;20217;-77
2021/03/20 06:44:27;;;;;;;1.10;1.10;;;;;;;1.66;57.86;101682.44;6313919;28;20215;-77
2021/03/20 06:47:35;;;;;;;2.40;1.10;;;;;;;1.65;58.17;101686.09;6313086;28;20184;-78
2021/03/20 06:50:42;;;;;;;2.07;1.50;;;;;;;1.77;57.30;101655.41;6314123;28;20187;-77
2021/03/20 06:53:53;;;;;;;1.40;1.30;;;;;;;1.64;57.96;101670.97;6312881;28;20376;-78
2021/03/20 06:56:56;;;;;;;1.67;1.20;;;;;;;1.62;58.22;101670.22;6314163;28;20296;-77
2021/03/20 07:00:20;;;;;;;1.37;1.30;;;;;;;1.72;57.89;101671.13;6314114;28;20225;-77
2021/03/20 07:04:06;;;;;;;2.80;1.40;;;;;;;1.71;57.98;101666.72;6265789;28;20467;-77
2021/03/20 07:07:45;;;;;;;2.90;1.40;;;;;;;1.70;58.39;101662.31;6241220;28;20276;-78
2021/03/20 07:10:52;;;;;;;1.20;1.20;;;;;;;1.95;57.55;101658.25;6261142;28;20240;-78
2021/03/20 07:13:59;;;;;;;1.30;1.20;;;;;;;2.03;57.32;101651.16;6265411;28;20238;-78
2021/03/20 07:17:04;;;;;;;5.03;1.33;;;;;;;2.10;57.14;101636.16;6266062;28;20191;-78
2021/03/20 07:20:14;;;;;;;1.57;1.40;;;;;;;1.83;56.92;101585.72;6265054;28;20196;-78
2021/03/20 07:23:19;;;;;;;1.10;1.10;;;;;;;2.09;57.22;101637.13;6265173;28;20185;-78
2021/03/20 07:26:22;;;;;;;1.00;1.00;;;;;;;2.25;57.16;101626.63;6266192;28;20244;-78
2021/03/20 07:29:46;;;;;;;2.43;1.30;;;;;;;2.26;57.12;101631.00;6266007;28;20219;-78
2021/03/20 07:32:49;;;;;;;2.20;1.30;;;;;;;2.43;56.33;101632.97;6264301;28;20218;-76
2021/03/20 07:35:56;;;;;;;1.53;1.37;;;;;;;2.38;56.96;101602.09;6263349;28;20229;-76
2021/03/20 07:39:15;;;;;;;7.83;1.30;;;;;;;2.60;56.35;101627.81;6262103;28;20468;-77
2021/03/20 07:42:29;;;;;;;3.07;1.03;;;;;;;2.33;57.30;101586.38;6265470;28;20214;-79
2021/03/20 07:45:32;;;;;;;1.20;1.20;;;;;;;2.68;56.21;101598.28;6265051;28;20227;-78
2021/03/20 07:48:36;;;;;;;1.00;1.00;;;;;;;2.73;56.44;101583.38;6263998;28;20223;-77
2021/03/20 07:51:46;;;;;;;4.73;1.27;;;;;;;2.67;56.90;101564.28;6262894;28;20196;-77
2021/03/20 07:55:02;;;;;;;3.07;1.20;;;;;;;2.78;56.37;101577.53;6262919;28;20189;-77
2021/03/20 07:58:12;;;;;;;1.83;1.30;;;;;;;2.84;55.93;101550.00;6262148;28;20207;-77
2021/03/20 08:01:26;;;;;;;1.57;1.50;;;;;;;2.86;56.15;101558.78;6276161;28;20239;-77
2021/03/20 08:04:50;;;;;;;2.50;1.30;;;;;;;3.10;56.04;101567.16;6311397;28;20448;-77
2021/03/20 08:07:55;;;;;;;3.30;1.20;;;;;;;2.99;55.88;101575.44;6312353;28;20205;-76
2021/03/20 08:10:59;;;;;;;17.60;1.70;;;;;;;2.79;56.76;101568.47;6312529;28;20258;-77
2021/03/20 08:14:08;;;;;;;3.63;1.50;;;;;;;2.83;56.32;101556.38;6311046;28;20254;-75
2021/03/20 08:17:20;;;;;;;2.63;1.13;;;;;;;2.87;56.57;101555.09;6312410;28;20191;-75
2021/03/20 08:20:24;;;;;;;4.13;1.30;;;;;;;3.02;55.88;101548.19;6312242;28;20192;-75
2021/03/20 08:23:42;;;;;;;1.93;1.07;;;;;;;3.12;55.63;101522.03;6312510;28;20184;-75
2021/03/20 08:26:58;;;;;;;5.50;1.70;;;;;;;3.27;55.70;101533.97;6312186;28;20184;-75
2021/03/20 08:30:23;;;;;;;3.90;1.50;;;;;;;3.19;55.97;101539.28;6312396;28;20197;-75
2021/03/20 08:34:05;;;;;;;7.53;1.40;;;;;;;3.35;54.95;101517.88;6311312;28;20232;-77
2021/03/20 08:37:33;;;;;;;5.80;1.40;;;;;;;3.31;55.79;101516.50;6310293;28;20412;-76
2021/03/20 08:40:53;;;;;;;2.17;1.47;;;;;;;3.32;55.48;101507.38;6312035;28;20184;-76
2021/03/20 08:44:22;;;;;;;1.23;1.23;;;;;;;3.33;55.42;101498.31;6312561;28;20192;-78
2021/03/20 08:48:05;;;;;;;4.80;1.50;;;;;;;3.29;55.64;101496.91;6312321;28;20194;-78
2021/03/20 08:51:28;;;;;;;2.77;1.73;;;;;;;3.48;54.69;101491.38;6273028;28;20204;-77
2021/03/20 08:54:49;;;;;;;1.80;1.20;;;;;;;3.50;55.11;101470.47;6311840;28;20388;-78
2021/03/20 08:57:59;;;;;;;13.53;1.80;;;;;;;3.55;55.24;101492.44;6315105;28;20230;-77
2021/03/20 09:01:09;;;;;;;1.50;1.40;;;;;;;3.58;55.36;101480.47;6312859;28;20417;-76
2021/03/20 09:04:16;;;;;;;6.20;1.47;;;;;;;3.32;56.04;101458.84;6312910;28;20191;-77
2021/03/20 09:07:23;;;;;;;1.63;1.30;;;;;;;3.63;56.06;101476.31;6311857;28;20188;-78
2021/03/20 09:10:33;;;;;;;1.50;1.37;;;;;;;3.73;55.22;101478.91;6312432;28;20222;-77
2021/03/20 09:13:44;;;;;;;1.43;1.30;;;;;;;3.87;54.79;101466.69;6311816;28;20515;-76
2021/03/20 09:16:50;;;;;;;12.03;1.60;;;;;;;3.96;54.81;101458.47;6310794;28;20385;-76
2021/03/20 09:19:57;;;;;;;3.00;1.40;;;;;;;3.68;54.25;101400.28;6312178;28;20187;-77
2021/03/20 09:23:01;;;;;;;2.67;1.30;;;;;;;3.82;55.32;101445.59;6313735;28;20217;-76
2021/03/20 09:26:07;;;;;;;1.43;1.40;;;;;;;3.97;55.42;101453.94;6314761;28;20214;-77
2021/03/20 09:29:15;;;;;;;4.37;1.27;;;;;;;4.07;55.55;101455.53;6316088;28;20186;-78
2021/03/20 09:32:19;;;;;;;7.60;1.43;;;;;;;4.19;54.97;101437.16;6316920;28;20187;-77
2021/03/20 09:35:27;;;;;;;2.67;1.27;;;;;;;4.26;55.01;101438.25;6316373;28;20236;-77
2021/03/20 09:38:48;;;;;;;1.30;1.20;;;;;;;4.35;54.00;101418.34;6314974;28;20282;-77
2021/03/20 09:41:51;;;;;;;1.40;1.30;;;;;;;4.48;54.03;101431.41;6315660;28;20188;-77
2021/03/20 09:44:58;;;;;;;2.70;1.50;;;;;;;4.52;54.79;101432.78;6315636;28;20242;-77
2021/03/20 09:48:01;;;;;;;1.93;1.37;;;;;;;4.60;54.04;101425.53;6315392;28;20219;-77
2021/03/20 09:51:38;;;;;;;9.50;1.40;;;;;;;4.46;54.79;101423.47;6315534;28;20191;-77
2021/03/20 09:54:45;;;;;;;5.90;1.53;;;;;;;4.58;54.29;101397.81;6314792;28;20204;-76
2021/03/20 09:57:52;;;;;;;2.57;1.60;;;;;;;4.64;54.39;101404.44;6315170;28;20187;-77
2021/03/20 10:01:07;;;;;;;1.40;1.40;;;;;;;4.55;54.46;101394.59;6314623;28;20295;-76
2021/03/20 10:04:27;;;;;;;3.10;1.80;;;;;;;4.60;54.90;101381.44;6314544;28;20187;-76
2021/03/20 10:07:33;;;;;;;8.07;2.30;;;;;;;4.77;54.34;101389.44;6315492;28;20215;-77
2021/03/20 10:10:46;;;;;;;2.83;1.73;;;;;;;4.87;54.37;101368.50;6313989;28;20360;-76
2021/03/20 10:13:50;;;;;;;1.50;1.50;;;;;;;4.85;54.30;101365.09;6314607;28;20187;-76
2021/03/20 10:17:06;;;;;;;1.50;1.50;;;;;;;4.76;55.09;101344.47;6314364;28;20264;-75
2021/03/20 10:20:17;;;;;;;3.00;1.33;;;;;;;4.85;54.72;101354.28;6314578;28;20244;-77
2021/03/20 10:23:32;;;;;;;5.53;2.67;;;;;;;5.03;54.67;101360.38;6314249;28;20191;-76
2021/03/20 10:26:41;;;;;;;1.53;1.43;;;;;;;4.89;54.46;101317.81;6313263;28;20401;-77
2021/03/20 10:29:45;;;;;;;4.27;1.83;;;;;;;5.18;54.81;101348.91;6313244;28;20207;-77
2021/03/20 10:33:00;;;;;;;5.03;1.53;;;;;;;5.28;54.83;101338.75;6313107;28;20245;-76
2021/03/20 10:36:11;;;;;;;3.70;1.57;;;;;;;5.20;54.82;101328.78;6313847;28;20198;-76
2021/03/20 10:39:27;;;;;;;3.60;1.50;;;;;;;5.26;55.92;101327.25;6313168;28;20365;-77
2021/03/20 10:42:35;;;;;;;5.70;1.50;;;;;;;5.27;54.75;101312.69;6316277;28;20188;-77
2021/03/20 10:45:43;;;;;;;6.60;1.80;;;;;;;5.24;55.51;101304.94;6316526;28;20247;-77
2021/03/20 10:48:49;;;;;;;1.70;1.50;;;;;;;5.36;55.58;101287.31;6315062;28;20244;-76
2021/03/20 10:51:54;;;;;;;5.63;1.20;;;;;;;5.49;55.74;101287.63;6313872;28;20232;-76
2021/03/20 10:55:02;;;;;;;4.40;2.30;;;;;;;5.35;55.76;101269.38;6314098;28;20197;-77
2021/03/20 10:58:08;;;;;;;1.87;1.40;;;;;;;5.47;55.11;101268.03;6313408;28;20187;-77
2021/03/20 11:01:12;;;;;;;2.27;1.47;;;;;;;5.55;55.63;101267.97;6312133;28;20556;-77
2021/03/20 11:04:28;;;;;;;2.93;1.80;;;;;;;5.54;54.93;101236.53;6312243;28;20188;-77
2021/03/20 11:07:31;;;;;;;2.63;1.60;;;;;;;5.67;55.10;101253.88;6312281;28;20555;-77
2021/03/20 11:10:37;;;;;;;6.43;1.60;;;;;;;5.64;55.58;101242.59;6313120;28;20196;-77
2021/03/20 11:13:44;;;;;;;2.73;1.30;;;;;;;5.81;54.81;101237.94;6313445;28;20209;-77
2021/03/20 11:16:50;;;;;;;3.47;1.50;;;;;;;6.01;54.63;101221.09;6312585;28;20559;-78
2021/03/20 11:20:02;;;;;;;7.00;1.63;;;;;;;6.11;54.77;101227.13;6312994;28;20190;-77
2021/03/20 11:23:27;;;;;;;7.60;2.00;;;;;;;6.19;54.53;101221.66;6313285;28;20185;-76
2021/03/20 11:26:39;;;;;;;3.17;2.90;;;;;;;6.22;54.37;101207.75;6312804;28;20217;-77
2021/03/20 11:29:45;;;;;;;10.57;1.80;;;;;;;6.31;54.46;101186.88;6313333;28;20224;-77
2021/03/20 11:32:50;;;;;;;13.93;1.70;;;;;;;6.38;54.54;101166.16;6313987;28;20186;-78
2021/03/20 11:35:56;;;;;;;5.43;1.33;;;;;;;6.42;54.26;101161.22;6311782;28;20464;-77
2021/03/20 11:39:01;;;;;;;7.40;1.87;;;;;;;6.49;54.58;101162.16;6312367;28;20223;-78
2021/03/20 11:42:10;;;;;;;5.10;1.80;;;;;;;6.58;54.22;101150.22;6311595;28;20186;-77
2021/03/20 11:45:29;;;;;;;3.33;1.40;;;;;;;6.66;54.23;101158.28;6310861;28;20222;-78
2021/03/20 11:48:37;;;;;;;4.07;1.57;;;;;;;6.61;54.25;101136.28;6313223;28;20192;-77
2021/03/20 11:51:45;;;;;;;2.70;1.80;;;;;;;6.76;54.34;101142.59;6311837;28;20360;-76
2021/03/20 11:54:58;;;;;;;12.67;1.90;;;;;;;6.76;54.28;101115.47;6312508;28;20198;-76
2021/03/20 11:58:05;;;;;;;5.57;1.43;;;;;;;6.75;54.51;101108.38;6312642;28;20249;-76
2021/03/20 12:01:29;;;;;;;3.70;1.43;;;;;;;6.89;54.90;101126.50;6311743;28;20284;-76
2021/03/20 12:04:33;;;;;;;5.30;1.60;;;;;;;7.04;54.60;101112.94;6311251;28;20218;-77
2021/03/20 12:07:37;;;;;;;9.80;1.97;;;;;;;7.15;54.14;101094.34;6311646;28;20588;-77
2021/03/20 12:10:54;;;;;;;3.23;1.97;;;;;;;7.16;54.27;101089.75;6311319;28;20268;-79
2021/03/20 12:13:58;;;;;;;4.13;1.30;;;;;;;7.25;54.27;101073.19;6312278;28;20186;-77
2021/03/20 12:17:05;;;;;;;5.23;1.60;;;;;;;7.29;54.36;101069.03;6311445;28;20412;-77
2021/03/20 12:20:27;;;;;;;6.70;1.70;;;;;;;7.37;54.47;101082.50;6310836;28;20187;-78
2021/03/20 12:23:35;;;;;;;6.97;2.00;;;;;;;7.47;54.58;101061.31;6312016;28;20186;-77
2021/03/20 12:26:39;;;;;;;6.10;1.40;;;;;;;7.58;54.46;101041.81;6311914;28;20214;-77
2021/03/20 12:29:43;;;;;;;3.67;1.57;;;;;;;7.60;54.71;101038.91;6312002;28;20238;-76
2021/03/20 12:32:48;;;;;;;9.40;1.60;;;;;;;7.71;54.15;101043.00;6311859;28;20186;-77
2021/03/20 12:35:55;;;;;;;5.20;1.33;;;;;;;7.65;54.52;101022.91;6310715;28;20217;-77
2021/03/20 12:39:01;;;;;;;8.97;1.80;;;;;;;7.78;54.12;101025.72;6312152;28;20222;-76
2021/03/20 12:42:23;;;;;;;13.57;1.70;;;;;;;7.94;53.73;101024.63;6311123;28;20250;-77
2021/03/20 12:45:36;;;;;;;3.67;1.60;;;;;;;7.85;53.96;101009.50;6311443;28;20501;-76
2021/03/20 12:48:50;;;;;;;12.17;1.60;;;;;;;7.80;54.01;101001.09;6312569;28;20232;-77
2021/03/20 12:51:58;;;;;;;7.90;1.50;;;;;;;7.87;53.56;101008.28;6312750;28;20241;-78
2021/03/20 12:55:04;;;;;;;5.87;1.90;;;;;;;7.83;54.11;101001.53;6312054;28;20187;-78
2021/03/20 12:58:10;;;;;;;10.43;1.70;;;;;;;7.92;54.07;101000.38;6314352;28;20183;-77
2021/03/20 13:01:14;;;;;;;4.20;1.70;;;;;;;7.93;54.01;100995.78;6315809;28;20307;-75
2021/03/20 13:04:20;;;;;;;3.10;1.77;;;;;;;7.92;53.83;100959.63;6316268;28;20183;-76
2021/03/20 13:07:24;;;;;;;3.57;1.50;;;;;;;7.74;54.01;100925.81;6315383;28;20517;-76
2021/03/20 13:10:29;;;;;;;10.27;1.80;;;;;;;8.06;53.71;100963.28;6316359;28;20184;-76
2021/03/20 13:13:35;;;;;;;4.53;1.50;;;;;;;7.94;53.72;100962.97;6315990;28;20255;-77
2021/03/20 13:16:38;;;;;;;3.03;1.50;;;;;;;7.88;54.48;100946.63;6318348;28;20219;-78
2021/03/20 13:19:41;;;;;;;5.15;1.88;;;;;;;8.10;54.14;100937.38;6317170;28;20187;-78
2021/03/20 13:22:45;;;;;;;6.68;1.58;;;;;;;8.09;53.98;100931.09;6315406;28;20183;-77
2021/03/20 13:25:49;;;;;;;6.80;1.80;;;;;;;8.05;54.21;100931.72;6316215;28;20345;-76
2021/03/20 13:28:52;;;;;;;8.60;2.53;;;;;;;8.07;54.19;100924.19;6315995;28;20183;-75
2021/03/20 13:31:56;;;;;;;7.77;2.00;;;;;;;7.87;54.35;100893.34;6315580;28;20324;-77
2021/03/20 13:35:00;;;;;;;4.30;2.20;;;;;;;8.08;54.49;100912.31;6314559;28;20237;-77
2021/03/20 13:38:08;;;;;;;4.40;2.17;;;;;;;8.07;54.32;100903.31;6298086;28;20195;-75
2021/03/20 13:41:18;;;;;;;8.30;2.03;;;;;;;7.93;54.72;100895.28;6314429;28;20470;-75
2021/03/20 13:44:23;;;;;;;2.23;1.60;;;;;;;8.08;54.22;100890.56;6315647;28;20187;-76
2021/03/20 13:47:26;;;;;;;1.70;1.60;;;;;;;8.04;54.68;100891.97;6315540;28;20274;-75
2021/03/20 13:50:35;;;;;;;1.40;1.37;;;;;;;7.95;54.64;100868.72;6315533;28;20190;-76
2021/03/20 13:53:40;;;;;;;2.57;1.77;;;;;;;7.96;54.91;100876.69;6314017;28;20473;-76
2021/03/20 13:56:44;;;;;;;6.37;2.00;;;;;;;8.09;54.52;100875.91;6315117;28;20219;-76
2021/03/20 13:59:47;;;;;;;3.90;2.33;;;;;;;8.00;54.89;100863.53;6315594;28;20253;-76
2021/03/20 14:02:50;;;;;;;5.07;1.60;;;;;;;8.04;54.91;100862.09;6296008;28;20311;-76
2021/03/20 14:05:58;;;;;;;11.10;1.80;;;;;;;8.05;54.47;100852.91;6315055;28;20210;-76
2021/03/20 14:09:02;;;;;;;6.93;1.77;;;;;;;8.01;55.07;100843.50;6312905;28;20184;-76
2021/03/20 14:12:11;;;;;;;5.63;1.70;;;;;;;7.90;55.43;100841.34;6314798;28;20215;-76
2021/03/20 14:15:17;;;;;;;5.50;1.80;;;;;;;7.77;55.51;100816.81;6313770;28;20470;-76
2021/03/20 14:18:28;;;;;;;4.80;1.90;;;;;;;7.98;55.50;100830.31;6313429;28;20470;-76
2021/03/20 14:21:31;;;;;;;2.13;1.90;;;;;;;8.12;55.07;100815.75;6314529;28;20262;-76
2021/03/20 14:24:35;;;;;;;11.20;1.80;;;;;;;7.98;55.86;100824.88;6313286;28;20203;-77
2021/03/20 14:27:39;;;;;;;9.77;2.00;;;;;;;7.89;56.07;100810.59;6314820;28;20223;-77
2021/03/20 14:30:46;;;;;;;4.43;2.30;;;;;;;7.98;55.81;100792.28;6313117;28;20383;-76
2021/03/20 14:33:52;;;;;;;3.60;1.50;;;;;;;8.08;56.07;100792.75;6314567;28;20183;-76
2021/03/20 14:36:56;;;;;;;3.23;1.67;;;;;;;8.04;55.98;100799.59;6314245;28;20213;-76
2021/03/20 14:40:03;;;;;;;9.43;2.10;;;;;;;8.08;55.92;100792.75;6313928;28;20209;-76
2021/03/20 14:43:09;;;;;;;5.20;1.87;;;;;;;8.11;55.98;100784.19;6314038;28;20183;-75
2021/03/20 14:46:12;;;;;;;9.17;2.10;;;;;;;8.11;56.32;100773.31;6312952;28;20214;-75
2021/03/20 14:49:16;;;;;;;3.57;1.53;;;;;;;8.14;56.04;100765.56;6312782;28;20207;-76
2021/03/20 14:52:19;;;;;;;6.75;2.08;;;;;;;8.17;56.28;100758.91;6314120;28;20251;-75
2021/03/20 14:55:23;;;;;;;5.77;1.90;;;;;;;8.07;56.38;100767.44;6313852;28;20225;-75